Quincy, IL (62301)

3:25 AM CDT on November 01, 2014 (GMT -0500)
S 28th Street | Change Station
CLOSE
Current Station
Personal Weather Station
Location: Quincy, IL
Elevation: 610 ft
Nearby Weather Stations
Active Advisory: Freeze Warning

Elev 610 ft 39.91 °N, 91.37 °W | Updated 4 seconds ago

Clear
Clear
27.1 °F
Feels Like 27 °F
N
0.0
Wind Variable Wind from North
Gusts 0.0 mph

Today
High -- | Low -- °F
--% Chance of Precip.
Yesterday
High -- | Low -- °F
Precip. -- in
7:34 AM 6:02 PM
Waxing Gibbous, 64% visible
Pressure 30.47 in
Visibility -9999.0 miles
Clouds Clear
Windchill 27 °F
Dew Point 14 °F
Humidity 57%
Rainfall 0.00 in
Snow Depth Not available.
UV 0 out of 12
Pollen .50 out of 12
Air Quality Not available.
Flu Activity Not available.
METAR KUIN 010754Z AUTO 34006KT CLR M04/M07 A3044 RMK AO2 SLP317 T10391072 $

More Conditions Fewer Conditions

Pressure 30.47 in
Visibility -9999.0 miles
Clouds Clear
Windchill 27 °F
Dew Point 14 °F
Humidity 57%
Rainfall 0.00 in
Snow Depth Not available.
UV 0 out of 12
Pollen .50 out of 12
Air Quality Not available.
Flu Activity Not available.
METAR KUIN 010754Z AUTO 34006KT CLR M04/M07 A3044 RMK AO2 SLP317 T10391072 $

More Conditions Fewer Conditions

10-Day Weather Forecast

Almanac

Astronomy

Nov. 01, 2014 Rise Set
Actual Time
Civil Twilight
Nautical Twilight
Astronomical Twilight
Moon
Length of Visible Light
Length of Day
Tomorrow will be .
, % of the Moon is Illuminated

Today's Extremes

State Highs State Lows

Community

WunderPhotos

Upload Photos

1,766,866 photos uploaded!

WunderBlogs® & News

Nearby

Air Quality

  Air Quality AQ Index Pollutant
Not available.

Snow Depth

Station Depth Elevation

Earthquake Activity

City Distance Mag. Time & Date
Minimum magnitude displayed is 2.5.

Coastal Water Temperatures

Place Temperature

Nearby Weather Stations